• Join FlightAware (Why Join?)
  • Login
  • US Flag 
07:28PM EST


 

Airport Tracker/Info


-or-


 

Live Flight TrackerFlight Track Log ✈ GJS6221 ✈ 23-Dec-2013 ✈ KLGA - KSAV

Flight Track Log - Related Links

Times and Time Zones

All times are in EST time to prevent confusion due to time zone crossing. See the GJS6221 flight status page for this flight to view local times or setup timezone preferences in your user account.

Time Position Orientation Groundspeed Altitude Reporting Facility
EST Latitude Longitude Course Direction KTS MPH feet Rate Location/Type
03:49PM 40.8000 -73.8667 346° North 169 194 1,200  Level New York TRACON
03:50PM 40.8500 -73.8833 346° North 190 219 3,700 1,800 Climbing New York TRACON
03:51PM 40.8833 -73.9167 323° Northwest 222 255 4,900 1,380 Climbing New York TRACON
03:52PM 40.9167 -74.0000 298° West 240 276 6,500 2,400 Climbing New York TRACON
03:53PM 40.8667 -74.0500 217° Southwest 209 241 9,800 2,640 Climbing New York TRACON
03:54PM 40.8167 -74.0833 207° Southwest 244 281 11,800 2,400 Climbing New York TRACON
03:55PM 40.7667 -74.1333 217° Southwest 224 258 14,700 1,800 Climbing New York TRACON
03:56PM 40.7167 -74.2000 225° Southwest 227 261 15,400 780 Climbing New York TRACON
03:58PM 40.6028 -74.2233 189° South 267 307 16,900 600 Climbing New York Center
03:59PM 40.5178 -74.2081 172° South 306 352 17,100  Climbing New York Center
04:00PM 40.4372 -74.1906 171° South 322 371 17,000  Descending New York Center
04:01PM 40.3397 -74.1692 171° South 328 377 17,200 840 Climbing New York Center
04:02PM 40.2625 -74.1789 185° South 321 369 18,700 1,440 Climbing New York Center
04:04PM 40.1119 -74.2217 192° South 307 353 21,100 1,380 Climbing Washington Center
04:05PM 40.0228 -74.2506 194° South 323 372 22,400 1,200 Climbing Washington Center
04:06PM 39.9419 -74.3117 210° Southwest 335 386 23,500 720 Climbing Washington Center
04:07PM 39.8678 -74.3858 218° Southwest 340 391 23,900 240 Climbing Washington Center
04:08PM 39.7917 -74.4656 219° Southwest 346 398 24,000  Climbing Washington Center
04:09PM 39.7256 -74.5528 225° Southwest 351 404 23,900 -60 Descending Washington Center
04:10PM 39.6556 -74.6456 226° Southwest 351 404 23,900 480 Level Washington Center
04:11PM 39.5897 -74.7353 226° Southwest 351 404 24,900 960 Climbing Washington Center
04:12PM 39.5214 -74.8247 225° Southwest 351 404 25,900 960 Climbing Washington Center
04:13PM 39.4533 -74.9117 225° Southwest 351 404 26,900 1,020 Climbing Washington Center
04:14PM 39.3828 -75.0036 225° Southwest 356 410 28,000 1,140 Climbing Washington Center
04:15PM 39.3228 -75.0844 226° Southwest 356 410 29,200 960 Climbing Washington Center
04:16PM 39.2375 -75.1414 207° Southwest 356 410 30,000 360 Climbing Washington Center
04:17PM 39.1439 -75.1875 201° Southwest 349 402 30,000  Level Washington Center
04:18PM 39.0586 -75.2522 211° Southwest 355 409 30,000 60 Level Washington Center
04:19PM 38.9714 -75.3192 211° Southwest 360 414 30,200 540 Climbing Washington Center
04:20PM 38.8861 -75.3864 212° Southwest 360 414 31,100 840 Climbing Washington Center
04:21PM 38.7986 -75.4531 211° Southwest 360 414 31,900 1,020 Climbing Washington Center
04:22PM 38.7131 -75.5197 211° Southwest 365 420 33,100 1,140 Climbing Washington Center
04:23PM 38.6297 -75.5864 212° Southwest 365 420 34,200 900 Climbing Washington Center
04:24PM 38.5483 -75.6475 210° Southwest 355 409 35,000 780 Climbing Washington Center
04:25PM 38.4650 -75.7111 211° Southwest 355 409 35,800 420 Climbing Washington Center
04:26PM 38.3856 -75.7744 212° Southwest 349 402 35,900 60 Climbing Washington Center
04:27PM 38.3042 -75.8297 208° Southwest 349 402 36,000  Climbing Washington Center
04:28PM 38.2208 -75.8931 211° Southwest 349 402 36,000  Level Washington Center
04:29PM 38.1392 -75.9561 211° Southwest 349 402 36,000  Level Washington Center
04:30PM 38.0556 -76.0189 211° Southwest 349 402 36,000  Level Washington Center
04:31PM 37.9742 -76.0792 210° Southwest 349 402 36,000  Level Washington Center
04:32PM 37.8903 -76.1444 212° Southwest 349 402 36,000  Level Washington Center
04:33PM 37.8067 -76.2069 211° Southwest 349 402 36,000  Level Washington Center
04:34PM 37.7250 -76.2667 210° Southwest 349 402 36,000  Level Washington Center
04:35PM 37.6411 -76.3286 210° Southwest 349 402 36,000  Level Washington Center
04:36PM 37.5594 -76.3908 211° Southwest 349 402 36,000  Level Washington Center
04:37PM 37.4797 -76.4581 214° Southwest 349 402 36,000  Level Washington Center
04:38PM 37.4000 -76.5303 216° Southwest 349 402 36,000  Level Washington Center
04:39PM 37.3242 -76.6078 219° Southwest 354 407 36,000  Level Washington Center
04:40PM 37.2464 -76.6797 216° Southwest 354 407 36,000  Level Washington Center
04:41PM 37.1686 -76.7542 217° Southwest 354 407 36,000  Level Washington Center
04:42PM 37.0947 -76.8261 218° Southwest 354 407 36,000  Level Washington Center
04:43PM 37.0169 -76.9003 217° Southwest 349 402 36,000  Level Washington Center
04:44PM 36.9408 -76.9717 217° Southwest 349 402 36,000  Level Washington Center
04:45PM 36.8650 -77.0456 218° Southwest 349 402 36,000  Level Washington Center
04:46PM 36.7889 -77.1194 218° Southwest 349 402 36,000  Level Washington Center
04:47PM 36.7108 -77.1931 217° Southwest 349 402 36,000  Level Washington Center
04:48PM 36.6325 -77.2667 217° Southwest 349 402 36,000  Level Washington Center
04:49PM 36.5564 -77.3400 218° Southwest 349 402 36,000  Level Washington Center
04:50PM 36.4803 -77.4106 217° Southwest 349 402 36,000  Level Washington Center
04:51PM 36.4019 -77.4861 218° Southwest 349 402 36,000  Level Washington Center
04:52PM 36.3236 -77.5589 217° Southwest 349 402 36,000  Level Washington Center
04:53PM 36.2494 -77.6292 217° Southwest 349 402 36,000  Level Washington Center
04:54PM 36.1708 -77.7019 217° Southwest 349 402 36,000  Level Washington Center
04:55PM 36.0903 -77.7742 216° Southwest 349 402 36,000  Level Washington Center
04:56PM 36.0139 -77.8442 217° Southwest 349 402 36,000  Level Washington Center
04:57PM 35.9331 -77.9186 217° Southwest 349 402 36,000  Level Washington Center
04:58PM 35.8525 -77.9906 216° Southwest 355 409 36,000  Level Washington Center
04:59PM 35.7739 -78.0625 217° Southwest 355 409 36,000  Level Washington Center
05:00PM 35.6908 -78.1367 216° Southwest 360 414 36,000  Level Washington Center
05:01PM 35.6122 -78.2083 217° Southwest 360 414 36,000  Level Washington Center
05:02PM 35.5292 -78.2822 216° Southwest 365 420 36,000  Level Washington Center
05:03PM 35.4461 -78.3533 215° Southwest 365 420 36,000  Level Washington Center
05:04PM 35.3628 -78.4344 218° Southwest 365 420 36,000  Level Washington Center
05:05PM 35.2778 -78.5053 214° Southwest 375 432 36,000  Level Washington Center
05:06PM 35.1986 -78.5811 218° Southwest 375 432 36,000  Level Washington Center
05:07PM 35.1175 -78.6542 216° Southwest 375 432 36,000  Level Washington Center
05:08PM 35.0342 -78.7297 217° Southwest 375 432 36,000  Level Washington Center
05:09PM 34.9614 -78.7953 216° Southwest 375 432 36,000  Level Washington Center
05:10PM 34.8781 -78.8681 216° Southwest 375 432 36,000  Level Washington Center
05:11PM 34.7478 -78.9814 216° Southwest 381 438 36,000  Level Jacksonville Center
05:12PM 34.6667 -79.0533 216° Southwest 376 433 36,000  Level Jacksonville Center
05:13PM 34.5856 -79.1275 217° Southwest 376 433 36,000  Level Jacksonville Center
05:14PM 34.4961 -79.2119 218° Southwest 376 433 36,000  Level Jacksonville Center
05:15PM 34.4128 -79.2836 215° Southwest 376 433 36,000  Level Jacksonville Center
05:16PM 34.3333 -79.3522 216° Southwest 376 433 36,000  Level Jacksonville Center
05:17PM 34.2661 -79.4100 215° Southwest 376 433 36,000  Level Jacksonville Center
05:18PM 34.1825 -79.4814 215° Southwest 359 413 36,000  Level Jacksonville Center
05:19PM 34.1008 -79.5497 215° Southwest 359 413 36,000  Level Jacksonville Center
05:20PM 34.0214 -79.6203 216° Southwest 359 413 36,000  Level Jacksonville Center
05:21PM 33.9397 -79.6936 217° Southwest 359 413 36,000  Level Jacksonville Center
05:22PM 33.8581 -79.7614 215° Southwest 359 413 36,000 -660 Level Jacksonville Center
05:23PM 33.7764 -79.8319 216° Southwest 359 413 34,700 -1,500 Descending Jacksonville Center
05:24PM 33.6925 -79.9047 216° Southwest 371 427 33,000 -1,800 Descending Jacksonville Center
05:25PM 33.6067 -79.9800 216° Southwest 376 433 31,100 -1,980 Descending Jacksonville Center
05:26PM 33.5206 -80.0525 215° Southwest 376 433 29,100 -2,040 Descending Jacksonville Center
05:27PM 33.4347 -80.1272 216° Southwest 381 438 27,100 -2,040 Descending Jacksonville Center
05:28PM 33.3528 -80.1969 215° Southwest 376 433 25,100 -2,100 Descending Jacksonville Center
05:29PM 33.2747 -80.2617 215° Southwest 366 421 22,900 -2,520 Descending Jacksonville Center
05:30PM 33.1906 -80.3336 216° Southwest 354 407 20,100 -2,340 Descending Jacksonville Center
05:31PM 33.1250 -80.3875 215° Southwest 340 391 18,300 -2,220 Descending Jacksonville Center
05:32PM 33.0428 -80.4567 215° Southwest 334 384 15,700 -2,460 Descending Jacksonville Center
05:33PM 32.9708 -80.5156 214° Southwest 328 377 13,400 -2,040 Descending Jacksonville Center
05:34PM 32.9031 -80.5719 215° Southwest 322 371 11,700 -1,320 Descending Jacksonville Center
05:35PM 32.8353 -80.6281 215° Southwest 311 358 10,800 -1,140 Descending Jacksonville Center
05:36PM 32.7756 -80.6789 216° Southwest 289 333 9,500 -1,500 Descending Jacksonville Center
05:37PM 32.7200 -80.7247 215° Southwest 269 310 7,900 -780 Descending Jacksonville Center
05:38PM 32.6664 -80.7728 217° Southwest 256 295 8,000  Climbing Jacksonville Center
05:39PM 32.6131 -80.8161 214° Southwest 256 295 8,000  Level Jacksonville Center
05:40PM 32.5511 -80.8692 216° Southwest 256 295 8,000  Level Jacksonville Center
05:41PM 32.4933 -80.9147 214° Southwest 256 295 8,000  Level Jacksonville Center
05:42PM 32.4397 -80.9578 214° Southwest 256 295 8,000  Level Jacksonville Center
05:44PM 32.3247 -81.0280 209° Southwest  Level FlightAware Approximate
05:51PM 32.1276 -81.2021 180° South  Level Estimated
05:52PM 32.1276 -81.2021 180° South  Level Estimated
05:53PM 32.1276 -81.2021 180° South  Level Estimated
05:54PM 32.1276 -81.2021 180° South  Level Estimated
05:55PM 32.1276 -81.2021 180° South  Level Estimated
05:56PM 32.1276 -81.2021 180° South  Level Estimated
05:57PM 32.1276 -81.2021 180° South  Level Estimated
05:58PM 32.1276 -81.2021 180° South  Level Estimated
05:59PM 32.1276 -81.2021 180° South  Level Estimated
06:00PM 32.1276 -81.2021 180° South  Level Estimated
06:01PM 32.1276 -81.2021 180° South  Level Estimated
06:02PM 32.1276 -81.2021 180° South  Level Estimated
06:03PM 32.1276 -81.2021 180° South  Level Estimated